Time;durP1;ratioP1;P1;durP2;ratioP2;P2;SDS_P1;SDS_P2;PMS_P1;PMS_P2;Temp;Humidity;BMP_temperature;BMP_pressure;BME280_temperature;BME280_humidity;BME280_pressure;Samples;Min_cycle;Max_cycle;Signal;HPM_P1;HPM_P2
2022/05/22 00:02:25;;;;;;;13.00;4.20;;;11.90;99.90;;;;;;5067586;28;20404;-80
2022/05/22 00:04:50;;;;;;;11.02;4.57;;;11.80;99.90;;;;;;5067568;28;20396;-80
2022/05/22 00:07:16;;;;;;;9.15;4.00;;;11.80;99.90;;;;;;5067595;28;21414;-80
2022/05/22 00:09:42;;;;;;;10.57;4.20;;;11.80;99.90;;;;;;5066925;28;20411;-81
2022/05/22 00:12:10;;;;;;;10.73;4.20;;;11.80;99.90;;;;;;5067417;28;20427;-81
2022/05/22 00:14:36;;;;;;;8.00;4.03;;;11.70;99.90;;;;;;5067636;28;20430;-81
2022/05/22 00:17:02;;;;;;;11.40;4.25;;;11.70;99.90;;;;;;5067721;28;20772;-80
2022/05/22 00:19:33;;;;;;;11.70;4.25;;;11.70;99.90;;;;;;5049370;28;20490;-80
2022/05/22 00:21:59;;;;;;;13.10;4.23;;;11.60;99.90;;;;;;5067460;28;20403;-80
2022/05/22 00:24:28;;;;;;;11.75;4.18;;;11.60;99.90;;;;;;5069929;28;20396;-81
2022/05/22 00:26:54;;;;;;;10.05;4.50;;;11.60;99.90;;;;;;5070993;28;20486;-80
2022/05/22 00:29:20;;;;;;;10.13;4.40;;;11.60;99.90;;;;;;5053348;28;21031;-81
2022/05/22 00:31:46;;;;;;;10.45;4.43;;;11.60;99.90;;;;;;5053324;28;21505;-80
2022/05/22 00:34:12;;;;;;;12.18;4.50;;;11.50;99.90;;;;;;5070643;28;20463;-80
2022/05/22 00:36:38;;;;;;;11.52;4.60;;;11.50;99.90;;;;;;5070897;28;20400;-81
2022/05/22 00:39:04;;;;;;;12.15;4.60;;;11.50;99.90;;;;;;5070674;28;20404;-80
2022/05/22 00:41:32;;;;;;;12.95;4.65;;;11.40;99.90;;;;;;5070669;28;20400;-81
2022/05/22 00:43:59;;;;;;;12.57;4.28;;;11.40;99.90;;;;;;5070356;28;20479;-80
2022/05/22 00:46:25;;;;;;;13.07;4.73;;;11.40;99.90;;;;;;5053142;28;20924;-81
2022/05/22 00:49:00;;;;;;;12.43;4.63;;;11.40;99.90;;;;;;5070395;28;20400;-80
2022/05/22 00:51:44;;;;;;;11.37;4.70;;;11.40;99.90;;;;;;5070468;28;20416;-81
2022/05/22 00:54:18;;;;;;;11.85;4.57;;;11.40;99.90;;;;;;5070638;28;21142;-80
2022/05/22 00:56:53;;;;;;;15.13;5.15;;;11.40;99.90;;;;;;5070154;28;20464;-80
2022/05/22 00:59:32;;;;;;;11.85;4.63;;;11.30;99.90;;;;;;5070777;28;20411;-80
2022/05/22 01:01:59;;;;;;;11.77;4.93;;;11.30;99.90;;;;;;5070765;28;20800;-81
2022/05/22 01:04:28;;;;;;;11.55;4.80;;;11.30;99.90;;;;;;5070520;28;20408;-80
2022/05/22 01:06:54;;;;;;;12.32;4.88;;;11.30;99.90;;;;;;5053386;28;20439;-81
2022/05/22 01:09:21;;;;;;;11.63;5.20;;;11.30;99.90;;;;;;5070682;28;20469;-80
2022/05/22 01:11:51;;;;;;;13.20;5.00;;;11.30;99.90;;;;;;5069860;28;20432;-80
2022/05/22 01:14:21;;;;;;;13.07;5.50;;;11.30;99.90;;;;;;5069873;28;20454;-80
2022/05/22 01:16:47;;;;;;;13.38;5.60;;;11.30;99.90;;;;;;5070697;28;20400;-81
2022/05/22 01:19:15;;;;;;;11.98;5.18;;;11.20;99.90;;;;;;5070291;28;20404;-80
2022/05/22 01:21:51;;;;;;;12.82;5.32;;;11.20;99.90;;;;;;5070537;28;20508;-80
2022/05/22 01:24:17;;;;;;;13.48;5.65;;;11.20;99.90;;;;;;5070301;28;20757;-80
2022/05/22 01:26:43;;;;;;;12.60;5.80;;;11.10;99.90;;;;;;5069810;28;20403;-81
2022/05/22 01:29:08;;;;;;;12.97;5.77;;;11.10;99.90;;;;;;5069825;28;20411;-80
2022/05/22 01:31:34;;;;;;;12.82;5.65;;;11.00;99.90;;;;;;5069819;28;20406;-80
2022/05/22 01:33:59;;;;;;;14.53;5.90;;;11.00;99.90;;;;;;5069520;28;20936;-80
2022/05/22 01:36:25;;;;;;;12.15;5.80;;;11.00;99.90;;;;;;5069185;28;20399;-80
2022/05/22 01:38:50;;;;;;;13.60;5.97;;;11.00;99.90;;;;;;5069833;28;20442;-80
2022/05/22 01:41:16;;;;;;;14.77;5.97;;;10.90;99.90;;;;;;5069753;28;20420;-80
2022/05/22 01:43:41;;;;;;;12.83;5.80;;;10.90;99.90;;;;;;5069640;28;20399;-80
2022/05/22 01:46:07;;;;;;;10.40;5.45;;;10.90;99.90;;;;;;5069594;28;20753;-80
2022/05/22 01:48:33;;;;;;;13.23;5.53;;;10.90;99.90;;;;;;5069635;28;20395;-80
2022/05/22 01:50:59;;;;;;;13.63;5.97;;;10.90;99.90;;;;;;5069461;28;20792;-80
2022/05/22 01:53:24;;;;;;;14.43;6.13;;;10.90;99.90;;;;;;5051483;28;20428;-80
2022/05/22 01:55:51;;;;;;;12.77;6.27;;;10.80;99.90;;;;;;5069210;28;20976;-80
2022/05/22 01:58:17;;;;;;;13.15;6.30;;;10.80;99.90;;;;;;5069444;28;20462;-80
2022/05/22 02:00:43;;;;;;;12.82;6.57;;;10.80;99.90;;;;;;5069522;28;20465;-80
2022/05/22 02:03:08;;;;;;;14.33;6.93;;;10.80;99.90;;;;;;5069443;28;20400;-80
2022/05/22 02:05:35;;;;;;;11.70;7.05;;;10.80;99.90;;;;;;5069004;28;20399;-80
2022/05/22 02:10:47;;;;;;;15.10;7.07;;;10.80;99.90;;;;;;5048977;28;20770;-80
2022/05/22 02:13:16;;;;;;;12.95;7.60;;;10.70;99.90;;;;;;5048901;28;20806;-80
2022/05/22 02:15:46;;;;;;;15.35;7.30;;;10.70;99.90;;;;;;5031012;28;20410;-80
2022/05/22 02:18:11;;;;;;;12.73;7.18;;;10.70;99.90;;;;;;5049040;28;20420;-81
2022/05/22 02:20:37;;;;;;;15.50;7.30;;;10.70;99.90;;;;;;5047646;28;20808;-80
2022/05/22 02:23:03;;;;;;;11.90;6.93;;;10.70;99.90;;;;;;5048738;28;20436;-80
2022/05/22 02:25:31;;;;;;;14.90;7.40;;;10.60;99.90;;;;;;5048650;28;20504;-80
2022/05/22 02:27:57;;;;;;;12.65;7.10;;;10.60;99.90;;;;;;5049010;28;20409;-80
2022/05/22 02:30:27;;;;;;;14.60;7.68;;;10.70;99.90;;;;;;5048860;28;20401;-80
2022/05/22 02:32:53;;;;;;;15.93;7.50;;;10.60;99.90;;;;;;5048934;28;20458;-81
2022/05/22 02:35:19;;;;;;;13.45;7.40;;;10.60;99.90;;;;;;5048438;28;21018;-81
2022/05/22 02:37:47;;;;;;;13.25;7.05;;;10.60;99.90;;;;;;5049175;28;20408;-80
2022/05/22 02:40:15;;;;;;;12.32;7.55;;;10.60;99.90;;;;;;5065267;28;20422;-81
2022/05/22 02:42:43;;;;;;;13.55;7.50;;;10.50;99.90;;;;;;5068407;28;20434;-81
2022/05/22 02:45:10;;;;;;;12.80;7.57;;;10.50;99.90;;;;;;5050474;28;20454;-80
2022/05/22 02:47:36;;;;;;;16.05;8.20;;;10.50;99.90;;;;;;5067513;28;20472;-80
2022/05/22 02:50:03;;;;;;;14.77;8.33;;;10.50;99.90;;;;;;5050080;28;20873;-80
2022/05/22 02:52:28;;;;;;;12.57;8.20;;;10.50;99.90;;;;;;5067898;28;20499;-81
2022/05/22 02:54:54;;;;;;;16.00;8.20;;;10.50;99.90;;;;;;5067948;28;20461;-80
2022/05/22 02:57:23;;;;;;;13.93;7.75;;;10.50;99.90;;;;;;5068193;28;20877;-80
2022/05/22 02:59:49;;;;;;;14.65;8.23;;;10.40;99.90;;;;;;5068178;28;20467;-81
2022/05/22 03:02:15;;;;;;;15.55;9.00;;;10.50;99.90;;;;;;5068039;28;20399;-81
2022/05/22 03:04:42;;;;;;;15.32;8.30;;;10.50;99.90;;;;;;5050214;28;20764;-81
2022/05/22 03:07:10;;;;;;;14.93;8.90;;;10.50;99.90;;;;;;5068016;28;20408;-80
2022/05/22 03:09:38;;;;;;;12.93;8.97;;;10.40;99.90;;;;;;5068251;28;20484;-80
2022/05/22 03:12:19;;;;;;;13.75;8.60;;;10.40;99.90;;;;;;5067487;28;20403;-80
2022/05/22 03:14:51;;;;;;;16.77;8.63;;;10.40;99.90;;;;;;5050224;28;20459;-81
2022/05/22 03:17:17;;;;;;;13.13;8.50;;;10.40;99.90;;;;;;5068010;28;20407;-81
2022/05/22 03:19:42;;;;;;;16.58;8.63;;;10.40;99.90;;;;;;5068108;28;20411;-81
2022/05/22 03:22:09;;;;;;;16.90;8.93;;;10.40;99.90;;;;;;5067626;28;20400;-81
2022/05/22 03:24:35;;;;;;;13.15;7.95;;;10.40;99.90;;;;;;5068088;28;20399;-80
2022/05/22 03:27:06;;;;;;;16.40;8.68;;;10.40;99.90;;;;;;5068056;28;20407;-80
2022/05/22 03:29:32;;;;;;;13.25;7.60;;;10.40;99.90;;;;;;5068033;28;20507;-80
2022/05/22 03:31:58;;;;;;;14.35;8.20;;;10.40;99.90;;;;;;5049620;28;20436;-81
2022/05/22 03:34:24;;;;;;;14.53;8.43;;;10.40;99.90;;;;;;5067734;28;20462;-81
2022/05/22 03:36:50;;;;;;;14.15;8.50;;;10.40;99.90;;;;;;5067931;28;20415;-80
2022/05/22 03:39:16;;;;;;;15.32;8.85;;;10.40;99.90;;;;;;5068000;28;20487;-80
2022/05/22 03:41:42;;;;;;;11.50;7.90;;;10.40;99.90;;;;;;5067493;28;20395;-81
2022/05/22 03:44:08;;;;;;;12.10;7.70;;;10.40;99.90;;;;;;5067340;28;20454;-81
2022/05/22 03:46:34;;;;;;;14.52;8.32;;;10.40;99.90;;;;;;5067730;28;20486;-80
2022/05/22 03:49:00;;;;;;;12.05;7.50;;;10.30;99.90;;;;;;5068022;28;20415;-80
2022/05/22 03:51:26;;;;;;;12.40;7.50;;;10.30;99.90;;;;;;5067513;28;20409;-80
2022/05/22 03:53:53;;;;;;;15.40;8.02;;;10.30;99.90;;;;;;5067179;28;20420;-80
2022/05/22 03:56:20;;;;;;;11.30;7.90;;;10.30;99.90;;;;;;5067696;28;20483;-81
2022/05/22 03:58:46;;;;;;;13.48;7.72;;;10.30;99.90;;;;;;5069780;28;20404;-81
2022/05/22 04:01:12;;;;;;;13.98;7.82;;;10.30;99.90;;;;;;5071358;28;20399;-81
2022/05/22 04:03:38;;;;;;;16.50;8.70;;;10.30;99.90;;;;;;5071706;28;20423;-81
2022/05/22 04:06:07;;;;;;;13.82;8.18;;;10.30;99.90;;;;;;5071448;28;20422;-81
2022/05/22 04:08:32;;;;;;;12.97;7.43;;;10.30;99.90;;;;;;5053739;28;20958;-81
2022/05/22 04:11:06;;;;;;;13.07;7.60;;;10.30;99.90;;;;;;5071399;28;20403;-81
2022/05/22 04:13:31;;;;;;;10.00;6.60;;;10.30;99.90;;;;;;5071391;28;20447;-80
2022/05/22 04:15:57;;;;;;;7.50;5.43;;;10.30;99.90;;;;;;5071367;28;20832;-81
2022/05/22 04:18:23;;;;;;;8.90;6.10;;;10.20;99.90;;;;;;5071047;28;20440;-80
2022/05/22 04:20:48;;;;;;;10.80;7.43;;;10.20;99.90;;;;;;5053600;28;20395;-81
2022/05/22 04:25:59;;;;;;;10.93;6.43;;;10.20;99.90;;;;;;5070824;28;20465;-81
2022/05/22 04:28:27;;;;;;;11.75;7.05;;;10.20;99.90;;;;;;5070252;28;20394;-81
2022/05/22 04:30:52;;;;;;;11.02;6.70;;;10.20;99.90;;;;;;5070909;28;20761;-81
2022/05/22 04:33:18;;;;;;;13.03;7.57;;;10.30;99.90;;;;;;5070448;28;20400;-81
2022/05/22 04:35:44;;;;;;;11.98;7.63;;;10.40;99.90;;;;;;5070840;28;20396;-81
2022/05/22 04:38:11;;;;;;;13.35;7.88;;;10.40;99.90;;;;;;5070936;28;20396;-80
2022/05/22 04:40:41;;;;;;;12.07;7.93;;;10.50;99.90;;;;;;5070967;28;20411;-80
2022/05/22 04:43:07;;;;;;;12.77;7.80;;;10.50;99.90;;;;;;5070824;28;20771;-81
2022/05/22 04:45:33;;;;;;;16.10;8.55;;;10.60;99.90;;;;;;5070781;28;20446;-81
2022/05/22 04:47:59;;;;;;;13.32;8.23;;;10.60;99.90;;;;;;5070643;28;20396;-81
2022/05/22 04:50:25;;;;;;;13.43;8.65;;;10.60;99.90;;;;;;5070380;28;20428;-80
2022/05/22 04:52:51;;;;;;;15.35;8.52;;;10.60;99.90;;;;;;5070534;28;20408;-81
2022/05/22 04:55:16;;;;;;;13.82;8.57;;;10.60;99.90;;;;;;5070644;28;20439;-80
2022/05/22 04:57:43;;;;;;;15.80;8.52;;;10.70;99.90;;;;;;5070055;28;20399;-81
2022/05/22 05:00:12;;;;;;;12.93;7.90;;;10.70;99.90;;;;;;5069402;28;20932;-80
2022/05/22 05:02:38;;;;;;;13.80;8.27;;;10.80;99.90;;;;;;5070275;28;20514;-81
2022/05/22 05:05:11;;;;;;;13.05;8.05;;;10.70;99.90;;;;;;5070664;28;20483;-81
2022/05/22 05:07:41;;;;;;;15.33;7.93;;;10.80;99.90;;;;;;5070113;28;20418;-81
2022/05/22 05:10:10;;;;;;;11.25;7.20;;;10.80;99.90;;;;;;5069697;28;20475;-80
2022/05/22 05:12:38;;;;;;;13.75;7.82;;;10.80;99.90;;;;;;5070457;28;20496;-81
2022/05/22 05:15:05;;;;;;;13.30;7.87;;;10.80;99.90;;;;;;5070086;28;20481;-81
2022/05/22 05:17:31;;;;;;;13.63;7.40;;;10.80;99.90;;;;;;5069736;28;20407;-81
2022/05/22 05:19:57;;;;;;;13.87;7.40;;;10.90;99.90;;;;;;5070071;28;20445;-81
2022/05/22 05:22:23;;;;;;;13.57;7.73;;;10.90;99.90;;;;;;5035612;28;20400;-81
2022/05/22 05:24:48;;;;;;;16.20;8.07;;;10.90;99.90;;;;;;5070357;28;20749;-81
2022/05/22 05:27:14;;;;;;;13.53;8.67;;;11.00;99.90;;;;;;5069910;28;20408;-81
2022/05/22 05:29:39;;;;;;;15.40;8.30;;;11.10;99.90;;;;;;5069973;28;20406;-81
2022/05/22 05:32:05;;;;;;;14.93;8.50;;;11.10;99.90;;;;;;5070230;28;20396;-81
2022/05/22 05:34:31;;;;;;;14.95;8.38;;;11.20;99.90;;;;;;5069831;28;20493;-81
2022/05/22 05:36:57;;;;;;;14.82;8.57;;;11.30;99.90;;;;;;5070033;28;20392;-81
2022/05/22 05:39:22;;;;;;;13.70;8.10;;;11.30;99.90;;;;;;5069589;28;20396;-80
2022/05/22 05:41:48;;;;;;;16.60;9.15;;;11.30;99.90;;;;;;5069765;28;20399;-81
2022/05/22 05:44:14;;;;;;;16.25;8.70;;;11.50;99.90;;;;;;5069924;28;20404;-81
2022/05/22 05:46:40;;;;;;;18.50;9.13;;;11.50;99.90;;;;;;5070142;28;20402;-81
2022/05/22 05:49:07;;;;;;;14.93;8.85;;;11.60;99.90;;;;;;5070777;28;20439;-81
2022/05/22 05:51:36;;;;;;;18.48;9.30;;;11.70;99.90;;;;;;5070031;28;20422;-81
2022/05/22 05:54:02;;;;;;;19.27;8.68;;;11.70;99.90;;;;;;5070253;28;20419;-80
2022/05/22 05:56:28;;;;;;;20.75;8.65;;;11.80;99.90;;;;;;5069584;28;20414;-80
2022/05/22 05:58:54;;;;;;;19.20;8.70;;;11.90;99.90;;;;;;5069688;28;20392;-81
2022/05/22 06:01:22;;;;;;;20.13;8.60;;;12.00;99.90;;;;;;5069603;28;20450;-80
2022/05/22 06:03:47;;;;;;;18.13;8.80;;;12.00;99.90;;;;;;5069591;28;20403;-80
2022/05/22 06:06:14;;;;;;;16.67;8.88;;;12.10;99.90;;;;;;5051607;28;20403;-81
2022/05/22 06:08:41;;;;;;;18.83;8.82;;;12.20;99.90;;;;;;5069418;28;20939;-81
2022/05/22 06:11:08;;;;;;;18.63;8.23;;;12.30;99.90;;;;;;5050647;28;20800;-80
2022/05/22 06:13:35;;;;;;;15.73;8.15;;;12.30;99.90;;;;;;5068490;28;20407;-81
2022/05/22 06:16:03;;;;;;;16.52;8.00;;;12.40;99.90;;;;;;5068975;28;20407;-81
2022/05/22 06:18:29;;;;;;;14.68;7.55;;;12.40;99.90;;;;;;5069106;28;20406;-81
2022/05/22 06:20:55;;;;;;;16.27;7.63;;;12.50;99.90;;;;;;5068623;28;20400;-80
2022/05/22 06:23:20;;;;;;;18.77;7.88;;;12.60;99.90;;;;;;5051116;28;20400;-81
2022/05/22 06:25:46;;;;;;;15.47;7.23;;;12.60;99.90;;;;;;5067782;28;20893;-81
2022/05/22 06:28:16;;;;;;;17.85;7.72;;;12.70;99.90;;;;;;5068741;28;20545;-81
2022/05/22 06:30:42;;;;;;;20.30;8.18;;;12.70;99.90;;;;;;5068934;28;20426;-81
2022/05/22 06:33:14;;;;;;;16.45;6.63;;;12.80;99.90;;;;;;5050846;28;20408;-81
2022/05/22 06:35:46;;;;;;;17.48;7.45;;;12.90;99.90;;;;;;5068303;28;20515;-81
2022/05/22 06:39:49;;;;;;;15.30;6.90;;;13.00;99.90;;;;;;5068213;28;20415;-81
2022/05/22 06:40:58;;;;;;;15.03;6.17;;;13.00;99.90;;;;;;5068644;28;20410;-81
2022/05/22 06:43:24;;;;;;;16.75;6.10;;;13.10;99.90;;;;;;5068402;28;20477;-80
2022/05/22 06:45:51;;;;;;;15.70;7.93;;;13.10;99.90;;;;;;5050879;28;20908;-81
2022/05/22 06:48:19;;;;;;;15.37;7.47;;;13.20;99.90;;;;;;5050441;28;20408;-81
2022/05/22 06:50:45;;;;;;;10.23;5.55;;;13.20;99.90;;;;;;5067991;28;20806;-81
2022/05/22 06:53:11;;;;;;;13.23;5.60;;;13.30;99.90;;;;;;5068429;28;20423;-81
2022/05/22 06:55:36;;;;;;;15.77;5.83;;;13.30;99.90;;;;;;5068352;28;20439;-81
2022/05/22 06:58:02;;;;;;;13.90;5.70;;;13.40;99.90;;;;;;5068320;28;20399;-81
2022/05/22 07:00:28;;;;;;;15.57;5.50;;;13.40;99.90;;;;;;5068156;28;20924;-81
2022/05/22 07:02:55;;;;;;;12.30;4.78;;;13.50;99.90;;;;;;5068168;28;20411;-81
2022/05/22 07:05:21;;;;;;;11.95;4.30;;;13.60;99.90;;;;;;5068392;28;20494;-81
2022/05/22 07:07:47;;;;;;;14.30;5.47;;;13.70;99.90;;;;;;5068359;28;20483;-81
2022/05/22 07:10:14;;;;;;;12.88;5.32;;;13.70;99.90;;;;;;5067798;28;20407;-81
2022/05/22 07:12:40;;;;;;;12.53;5.57;;;13.80;99.90;;;;;;5068142;28;20430;-81
2022/05/22 07:15:07;;;;;;;12.27;4.77;;;13.80;99.90;;;;;;5068322;28;20423;-81
2022/05/22 07:17:33;;;;;;;11.68;4.63;;;13.90;99.90;;;;;;5067791;28;20936;-81
2022/05/22 07:19:59;;;;;;;11.30;3.97;;;13.90;99.90;;;;;;5067881;28;20408;-81
2022/05/22 07:22:25;;;;;;;12.48;3.92;;;14.00;99.90;;;;;;5067978;28;20406;-81
2022/05/22 07:24:51;;;;;;;12.70;4.30;;;14.10;99.90;;;;;;5067854;28;20411;-81
2022/05/22 07:27:17;;;;;;;10.93;4.15;;;14.20;99.90;;;;;;5068017;28;20487;-81
2022/05/22 07:29:43;;;;;;;15.52;4.63;;;14.30;99.90;;;;;;5068003;28;20475;-81
2022/05/22 07:32:09;;;;;;;11.32;4.20;;;14.30;99.90;;;;;;5068036;28;20400;-81
2022/05/22 07:34:35;;;;;;;11.10;4.20;;;14.40;99.90;;;;;;5071157;28;20469;-81
2022/05/22 07:37:03;;;;;;;9.85;4.15;;;14.40;99.90;;;;;;5071557;28;20407;-81
2022/05/22 07:39:30;;;;;;;11.35;3.92;;;14.50;99.90;;;;;;5071850;28;20979;-81
2022/05/22 07:41:56;;;;;;;14.93;4.18;;;14.60;99.90;;;;;;5071968;28;20403;-81
2022/05/22 07:44:22;;;;;;;9.80;3.60;;;14.60;99.90;;;;;;5071501;28;20506;-81
2022/05/22 07:46:49;;;;;;;10.03;3.30;;;14.70;99.90;;;;;;5071907;28;20430;-81
2022/05/22 07:52:09;;;;;;;10.48;3.55;;;14.90;99.90;;;;;;5053941;28;20473;-81
2022/05/22 07:54:37;;;;;;;10.98;3.65;;;15.00;99.90;;;;;;5053958;28;20824;-81
2022/05/22 07:57:03;;;;;;;13.32;3.20;;;15.00;99.90;;;;;;5071475;28;20399;-81
2022/05/22 07:59:32;;;;;;;11.05;3.40;;;14.90;99.90;;;;;;5071649;28;20391;-81
2022/05/22 08:01:58;;;;;;;9.43;2.80;;;14.90;99.90;;;;;;5071745;28;20486;-78
2022/05/22 08:04:23;;;;;;;12.10;3.20;;;14.90;99.90;;;;;;5037365;28;20403;-80
2022/05/22 08:06:49;;;;;;;11.00;3.50;;;15.00;99.90;;;;;;5071821;28;20407;-80
2022/05/22 08:09:15;;;;;;;8.88;2.92;;;15.10;99.90;;;;;;5071287;28;20395;-80
2022/05/22 08:11:40;;;;;;;10.70;3.17;;;15.20;99.90;;;;;;5069735;28;20417;-81
2022/05/22 08:14:06;;;;;;;10.63;3.60;;;15.30;99.90;;;;;;5070068;28;20431;-81
2022/05/22 08:16:31;;;;;;;10.00;2.90;;;15.40;99.90;;;;;;5069779;28;20406;-81
2022/05/22 08:18:57;;;;;;;8.80;2.58;;;15.50;99.90;;;;;;5069777;28;20421;-81
2022/05/22 08:21:23;;;;;;;8.90;3.03;;;15.50;99.90;;;;;;5069864;28;20411;-81
2022/05/22 08:23:48;;;;;;;10.13;2.92;;;15.50;99.90;;;;;;5065611;28;20821;-81
2022/05/22 08:26:14;;;;;;;10.70;3.40;;;15.40;99.90;;;;;;5069845;28;20460;-82
2022/05/22 08:28:40;;;;;;;7.55;2.85;;;15.40;99.90;;;;;;5069467;28;20446;-81
2022/05/22 08:31:06;;;;;;;9.57;3.10;;;15.60;99.90;;;;;;5065934;28;20495;-81
2022/05/22 08:33:32;;;;;;;10.38;3.10;;;15.70;99.90;;;;;;5069396;28;20407;-81
2022/05/22 08:35:58;;;;;;;9.45;3.10;;;16.00;99.90;;;;;;5069909;28;20403;-81
2022/05/22 08:38:24;;;;;;;10.40;3.33;;;16.20;99.90;;;;;;5069840;28;20391;-81
2022/05/22 08:40:52;;;;;;;13.93;3.45;;;16.40;99.90;;;;;;5069632;28;20490;-81
2022/05/22 08:43:35;;;;;;;9.32;3.03;;;16.50;99.90;;;;;;5069204;28;20414;-81
2022/05/22 08:46:07;;;;;;;9.20;2.60;;;16.50;99.90;;;;;;5069460;28;20967;-81
2022/05/22 08:48:51;;;;;;;11.20;3.33;;;16.60;99.90;;;;;;5051508;28;20415;-82
2022/05/22 08:51:24;;;;;;;11.30;3.10;;;16.60;99.90;;;;;;5068928;28;20443;-80
2022/05/22 08:53:55;;;;;;;9.17;2.90;;;16.70;99.90;;;;;;5068601;28;20439;-81
2022/05/22 08:59:24;;;;;;;11.10;2.67;;;16.90;99.90;;;;;;5048001;28;20419;-82
2022/05/22 09:02:16;;;;;;;8.00;2.92;;;16.90;99.90;;;;;;5079547;28;20503;-80
2022/05/22 09:05:14;;;;;;;8.48;2.55;;;17.20;99.90;;;;;;5024959;28;20491;-80
2022/05/22 09:07:50;;;;;;;9.50;2.50;;;17.40;99.90;;;;;;5041912;28;20513;-81
2022/05/22 09:10:54;;;;;;;9.82;2.92;;;17.50;99.90;;;;;;5062347;28;20400;-81
2022/05/22 09:13:37;;;;;;;9.98;3.38;;;17.40;99.90;;;;;;5046081;28;20927;-81
2022/05/22 09:16:20;;;;;;;13.57;3.55;;;17.30;99.90;;;;;;5070325;28;20428;-81
2022/05/22 09:19:08;;;;;;;6.85;2.35;;;17.50;99.90;;;;;;5089321;28;20418;-81
2022/05/22 09:21:51;;;;;;;10.40;2.97;;;17.70;99.90;;;;;;5080595;28;20427;-81
2022/05/22 09:24:58;;;;;;;10.30;3.00;;;17.90;99.90;;;;;;5070018;28;20909;-81
2022/05/22 09:27:52;;;;;;;9.93;2.83;;;18.20;99.90;;;;;;5035282;28;20466;-81
2022/05/22 09:30:40;;;;;;;9.50;2.57;;;18.60;99.90;;;;;;5064398;28;20520;-81
2022/05/22 09:33:36;;;;;;;7.35;2.35;;;19.20;99.90;;;;;;5090519;28;20401;-79
2022/05/22 09:36:13;;;;;;;9.35;2.50;;;19.40;99.90;;;;;;5087699;28;20441;-79
2022/05/22 09:38:56;;;;;;;7.45;2.10;;;19.80;99.90;;;;;;5073280;28;20070;-79
2022/05/22 09:41:38;;;;;;;;;;;19.80;99.80;;;;;;5057139;28;20047;-79
2022/05/22 09:44:03;;;;;;;;;;;19.50;99.90;;;;;;5105230;28;19924;-79
2022/05/22 09:46:29;;;;;;;;;;;19.20;99.80;;;;;;5073652;28;19947;-79
2022/05/22 09:49:11;;;;;;;;;;;19.00;99.90;;;;;;5056872;28;19919;-79
2022/05/22 09:51:56;;;;;;;;;;;18.90;99.90;;;;;;5090304;28;19967;-79
2022/05/22 09:54:27;;;;;;;;;;;18.70;99.00;;;;;;5087138;28;19931;-79
2022/05/22 09:57:11;;;;;;;;;;;18.60;99.90;;;;;;5068994;28;19928;-79
2022/05/22 09:59:46;;;;;;;;;;;18.70;99.90;;;;;;5067020;28;20298;-79
2022/05/22 10:02:24;;;;;;;;;;;19.10;99.90;;;;;;5051975;28;19932;-79
2022/05/22 10:04:59;;;;;;;;;;;19.60;99.80;;;;;;5086944;28;20354;-80
2022/05/22 10:07:28;;;;;;;;;;;20.10;99.40;;;;;;5069011;28;19920;-79
2022/05/22 10:10:00;;;;;;;;;;;20.60;98.60;;;;;;5058433;28;19924;-80
2022/05/22 10:12:38;;;;;;;;;;;21.00;98.00;;;;;;5073538;28;19931;-79
2022/05/22 10:15:09;;;;;;;;;;;21.20;97.00;;;;;;5069591;28;20282;-79
2022/05/22 10:17:38;;;;;;;;;;;21.00;96.70;;;;;;5052419;28;19979;-80
2022/05/22 10:20:09;;;;;;;;;;;20.80;96.70;;;;;;5070780;28;20439;-80
2022/05/22 10:22:53;;;;;;;;;;;20.60;95.80;;;;;;5052897;28;19924;-80
2022/05/22 10:25:28;;;;;;;;;;;20.50;96.50;;;;;;5070387;28;19984;-80
2022/05/22 10:27:59;;;;;;;;;;;20.50;96.90;;;;;;5070568;28;19920;-80
2022/05/22 10:30:28;;;;;;;;;;;20.50;94.90;;;;;;5070362;28;20007;-80
2022/05/22 10:33:00;;;;;;;;;;;20.70;95.80;;;;;;5070609;28;19920;-80
2022/05/22 10:35:27;;;;;;;;;;;21.10;96.00;;;;;;5052666;28;19966;-81
2022/05/22 10:37:53;;;;;;;;;;;21.40;95.50;;;;;;5052174;28;19967;-80
2022/05/22 10:40:21;;;;;;;5.57;1.13;;;21.80;95.00;;;;;;5035733;28;20374;-80
2022/05/22 10:42:52;;;;;;;5.68;1.67;;;22.20;94.30;;;;;;5070132;28;20056;-80
2022/05/22 10:45:35;;;;;;;6.82;1.48;;;22.30;93.00;;;;;;5052161;28;20045;-80
2022/05/22 10:48:19;;;;;;;7.43;2.00;;;22.60;93.00;;;;;;5051054;28;20415;-80
2022/05/22 10:51:08;;;;;;;8.40;2.08;;;22.50;92.50;;;;;;5068846;28;20448;-80
2022/05/22 10:53:40;;;;;;;7.45;1.70;;;22.20;92.60;;;;;;5068640;28;20978;-80
2022/05/22 10:56:23;;;;;;;6.70;1.83;;;22.00;91.40;;;;;;5051145;28;20420;-80
2022/05/22 10:58:52;;;;;;;7.15;1.77;;;21.70;92.30;;;;;;5068549;28;20408;-80
2022/05/22 11:01:21;;;;;;;6.88;1.40;;;21.50;91.90;;;;;;5068491;28;20415;-79
2022/05/22 11:03:47;;;;;;;7.57;1.60;;;21.30;92.40;;;;;;5068468;28;20400;-80
2022/05/22 11:06:20;;;;;;;8.70;1.83;;;21.20;92.60;;;;;;5068027;28;20422;-80
2022/05/22 11:08:53;;;;;;;6.75;1.48;;;21.00;92.70;;;;;;5066854;28;20415;-80
2022/05/22 11:11:23;;;;;;;7.07;2.20;;;21.00;92.30;;;;;;5033769;28;20441;-81
2022/05/22 11:13:51;;;;;;;8.32;2.83;;;21.00;93.10;;;;;;5068206;28;20424;-81
2022/05/22 11:16:26;;;;;;;8.50;2.85;;;21.10;93.20;;;;;;5068101;28;20407;-81
2022/05/22 11:19:09;;;;;;;11.38;3.65;;;21.10;93.40;;;;;;5068156;28;20396;-80
2022/05/22 11:21:53;;;;;;;7.60;2.03;;;21.00;93.60;;;;;;5068100;28;20400;-80
2022/05/22 11:24:42;;;;;;;7.15;1.48;;;20.80;92.50;;;;;;5050537;28;20404;-80
2022/05/22 11:27:47;;;;;;;7.57;1.80;;;20.80;91.90;;;;;;5067902;28;20439;-80
2022/05/22 11:30:31;;;;;;;9.20;2.13;;;20.70;92.70;;;;;;5050386;28;20832;-81
2022/05/22 11:33:19;;;;;;;7.43;2.00;;;20.50;92.20;;;;;;5068129;28;20400;-80
2022/05/22 11:36:16;;;;;;;6.55;1.75;;;20.40;92.00;;;;;;5067827;28;20427;-80
2022/05/22 11:38:44;;;;;;;7.83;2.20;;;20.30;93.10;;;;;;5067682;28;20408;-80
2022/05/22 11:41:25;;;;;;;6.93;2.22;;;20.20;94.00;;;;;;5068055;28;20400;-80
2022/05/22 11:44:15;;;;;;;8.10;1.83;;;20.30;93.60;;;;;;5049671;28;20415;-81
2022/05/22 11:47:17;;;;;;;6.45;1.98;;;20.30;92.90;;;;;;5067483;28;20761;-80
2022/05/22 11:49:52;;;;;;;7.05;1.80;;;20.50;93.00;;;;;;5068002;28;20510;-81
2022/05/22 11:52:54;;;;;;;6.38;1.30;;;21.00;93.30;;;;;;5067356;28;20817;-81
2022/05/22 11:55:38;;;;;;;8.02;1.50;;;21.30;92.30;;;;;;5066546;28;20434;-81
2022/05/22 11:58:26;;;;;;;8.35;1.73;;;21.60;92.00;;;;;;5067907;28;20446;-80
2022/05/22 12:01:13;;;;;;;;;;;21.60;91.10;;;;;;5069509;28;20048;-81
2022/05/22 12:04:03;;;;;;;;;;;21.50;91.20;;;;;;5031400;28;20423;-81
2022/05/22 12:06:35;;;;;;;;;;;21.30;90.60;;;;;;5047898;28;20011;-81
2022/05/22 12:09:19;;;;;;;;;;;21.30;90.60;;;;;;5048731;28;19924;-80
2022/05/22 12:12:10;;;;;;;;;;;21.20;90.40;;;;;;5049618;28;19928;-81
2022/05/22 12:14:44;;;;;;;;;;;21.30;90.90;;;;;;5031343;28;19921;-81
2022/05/22 12:17:23;;;;;;;6.68;1.70;;;21.50;91.50;;;;;;5030998;28;20389;-80
2022/05/22 12:20:02;;;;;;;;;;;21.90;91.50;;;;;;5032943;28;20411;-82
2022/05/22 12:25:15;;;;;;;;;;;23.00;88.70;;;;;;5068674;28;19960;-81
2022/05/22 12:27:41;;;;;;;;;;;23.20;88.20;;;;;;5068398;28;19964;-81
2022/05/22 12:30:19;;;;;;;;;;;23.20;86.40;;;;;;5035089;28;19964;-81
2022/05/22 12:32:54;;;;;;;;;;;22.70;86.40;;;;;;5034393;28;19980;-82
2022/05/22 12:35:19;;;;;;;;;;;22.30;87.70;;;;;;5034972;28;19921;-81
2022/05/22 12:37:48;;;;;;;;;;;22.10;89.70;;;;;;5051627;28;19927;-81
2022/05/22 12:40:16;;;;;;;;;;;22.20;90.20;;;;;;5035018;28;19920;-81
2022/05/22 12:42:47;;;;;;;;;;;22.50;90.60;;;;;;5056022;28;19990;-80
2022/05/22 12:45:13;;;;;;;;;;;22.90;90.20;;;;;;5089291;28;19920;-79
2022/05/22 12:47:44;;;;;;;;;;;23.30;90.10;;;;;;5073178;28;19931;-81
2022/05/22 12:50:09;;;;;;;;;;;23.70;88.30;;;;;;5038301;28;19927;-81
2022/05/22 12:52:35;;;;;;;;;;;24.10;87.60;;;;;;5070917;28;19921;-81
2022/05/22 12:55:09;;;;;;;7.60;2.55;;;24.30;82.80;;;;;;5073520;28;19946;-81
2022/05/22 12:57:35;;;;;;;5.88;2.08;;;24.40;82.30;;;;;;5071729;28;20530;-81
2022/05/22 13:00:15;;;;;;;8.85;2.15;;;24.30;82.70;;;;;;5057817;28;20441;-81
2022/05/22 13:02:43;;;;;;;5.53;2.00;;;24.40;84.20;;;;;;5041391;28;20419;-81
2022/05/22 13:05:30;;;;;;;7.32;2.30;;;24.50;84.80;;;;;;5071084;28;20438;-81
2022/05/22 13:07:56;;;;;;;7.32;2.03;;;24.70;80.90;;;;;;5050765;28;20416;-82
2022/05/22 13:10:45;;;;;;;8.23;2.13;;;24.70;80.60;;;;;;5080579;28;20416;-81
2022/05/22 13:13:14;;;;;;;7.32;2.15;;;24.50;80.60;;;;;;5072556;28;20422;-81
2022/05/22 13:15:55;;;;;;;6.80;2.35;;;24.40;80.60;;;;;;5087086;28;20534;-80
2022/05/22 13:18:21;;;;;;;7.30;2.20;;;24.10;79.80;;;;;;5069814;28;20403;-81
2022/05/22 13:20:52;;;;;;;5.82;2.40;;;23.70;78.70;;;;;;5069779;28;20411;-81
2022/05/22 13:23:28;;;;;;;7.20;2.17;;;23.40;81.60;;;;;;5070334;28;20396;-81